Bergen Point, New Jersey
Current Conditions -  °F | °C
As of 8:51 PM on Friday 24 Oct 2014 (Local Time) from KEWR Reporting Station
Broken Clouds Broken Clouds  
Wind Chill: 61°   Ceiling: 25000
Heat Index: 61°   Visibility: 10mi
Dew Point: 41°   Wind: 8mph
Humidity: 48%   Direction: 310°NW
Pressure: 29.82"   Gusts: NA
Location:  40.6645°N, 74.1108°W
Report Text: KEWR 250051Z 31007KT 10SM FEW060 SCT130 BKN250 16/05 A2982 RMK AO2 SLP098 T01610050
Loading
Personal Weather Stations






























Interactive Weather Map
Tropical Storm Tracking
New forecast layout! Learn more

10-Day Weather Forecast

Advertisements
Track Severe Weather on mobile